Wetterdaten: Woche 18.03.13 - 24.03.13 (KW12)
Datum Zeit Temp. A. Feuchte A. Luftdruck Regen Wind Richtung Taupunkt Windchill Windben
18.03.2013 00:00 -0,2 C 89 % 1000,8 hPa 0,0 l/m 6,9 km/h (2 Bft) S-SO -1,8 C -0,6 C 8,0 km/h (2 Bft)
18.03.2013 01:00 -0,2 C 89 % 1000,2 hPa 0,0 l/m 6,4 km/h (2 Bft) S-SO -1,8 C -0,2 C 6,4 km/h (2 Bft)
18.03.2013 02:00 -0,2 C 89 % 1000,0 hPa 0,0 l/m 6,4 km/h (2 Bft) S-SO -1,8 C -0,2 C 6,4 km/h (2 Bft)
18.03.2013 03:00 -0,2 C 89 % 999,4 hPa 0,0 l/m 6,4 km/h (2 Bft) S-SO -1,8 C -0,2 C 6,4 km/h (2 Bft)
18.03.2013 04:00 -0,4 C 89 % 998,8 hPa 0,0 l/m 7,9 km/h (2 Bft) S-SO -1,9 C -1,8 C 13,0 km/h (3 Bft)
18.03.2013 05:00 -0,5 C 90 % 998,6 hPa 0,0 l/m 9,0 km/h (2 Bft) S -2,0 C -3,1 C 13,4 km/h (3 Bft)
18.03.2013 06:00 -0,5 C 90 % 998,6 hPa 0,0 l/m 8,0 km/h (2 Bft) S -1,9 C -2,2 C 8,0 km/h (2 Bft)
18.03.2013 07:00 -0,5 C 90 % 998,5 hPa 0,0 l/m 8,0 km/h (2 Bft) S -1,9 C -2,2 C 8,0 km/h (2 Bft)
18.03.2013 08:00 -0,4 C 93 % 998,5 hPa 0,0 l/m 7,3 km/h (2 Bft) SO -1,5 C -1,4 C 14,9 km/h (3 Bft)
18.03.2013 09:00 -0,2 C 92 % 998,7 hPa 0,0 l/m 7,2 km/h (2 Bft) O -1,3 C -1,1 C 13,8 km/h (3 Bft)
18.03.2013 10:00 0,1 C 91 % 998,7 hPa 0,0 l/m 9,1 km/h (2 Bft) O -1,1 C -2,5 C 16,6 km/h (3 Bft)
18.03.2013 11:00 0,4 C 91 % 998,5 hPa 0,0 l/m 9,3 km/h (2 Bft) N -0,9 C -2,4 C 10,4 km/h (2 Bft)
18.03.2013 12:00 0,4 C 91 % 998,3 hPa 0,0 l/m 9,7 km/h (2 Bft) N -0,9 C -2,8 C 6,8 km/h (2 Bft)
18.03.2013 13:00 0,5 C 91 % 998,0 hPa 0,4 l/m 9,3 km/h (2 Bft) O -0,8 C -2,2 C 14,6 km/h (3 Bft)
18.03.2013 14:00 0,4 C 91 % 997,9 hPa 0,2 l/m 9,3 km/h (2 Bft) O -0,9 C -2,3 C 16,0 km/h (3 Bft)
18.03.2013 15:00 0,0 C 91 % 998,0 hPa 0,2 l/m 8,2 km/h (2 Bft) O -1,2 C -1,7 C 14,2 km/h (3 Bft)
18.03.2013 16:00 -0,1 C 91 % 997,8 hPa 0,0 l/m 7,7 km/h (2 Bft) O -1,4 C -1,4 C 14,8 km/h (3 Bft)
18.03.2013 17:00 -0,3 C 91 % 997,7 hPa 0,0 l/m 7,7 km/h (2 Bft) O-NO -1,6 C -1,6 C 14,0 km/h (3 Bft)
18.03.2013 18:00 -0,4 C 91 % 997,9 hPa 0,0 l/m 6,4 km/h (2 Bft) O-NO -1,7 C -0,4 C 6,4 km/h (2 Bft)
18.03.2013 19:00 -0,4 C 91 % 997,8 hPa 0,0 l/m 6,4 km/h (2 Bft) O-NO -1,7 C -0,4 C 6,4 km/h (2 Bft)
18.03.2013 20:00 -0,4 C 91 % 997,7 hPa 0,0 l/m 6,4 km/h (2 Bft) O-NO -1,7 C -0,4 C 6,4 km/h (2 Bft)
18.03.2013 21:00 -0,4 C 91 % 997,5 hPa 0,0 l/m 6,4 km/h (2 Bft) O-NO -1,7 C -0,4 C 6,4 km/h (2 Bft)
18.03.2013 22:00 -0,4 C 91 % 997,3 hPa 0,0 l/m 6,4 km/h (2 Bft) O-NO -1,7 C -0,4 C 6,4 km/h (2 Bft)
18.03.2013 23:00 -1,3 C 90 % 997,1 hPa 0,0 l/m 8,3 km/h (2 Bft) NO -2,6 C -3,2 C 11,4 km/h (2 Bft)
19.03.2013 00:00 -1,8 C 90 % 997,1 hPa 0,0 l/m 10,5 km/h (2 Bft) NO -3,3 C -5,8 C 14,9 km/h (3 Bft)
19.03.2013 01:00 -1,9 C 91 % 996,9 hPa 0,0 l/m 10,2 km/h (2 Bft) NO -3,2 C -5,6 C 14,6 km/h (3 Bft)
19.03.2013 02:00 -1,9 C 91 % 996,5 hPa 0,0 l/m 8,6 km/h (2 Bft) N-NO -3,2 C -4,2 C 12,8 km/h (3 Bft)
19.03.2013 03:00 -1,9 C 91 % 996,4 hPa 0,0 l/m 9,3 km/h (2 Bft) N -3,2 C -4,9 C 12,6 km/h (3 Bft)
19.03.2013 04:00 -1,9 C 91 % 996,5 hPa 0,0 l/m 10,5 km/h (2 Bft) N -3,2 C -6,0 C 14,5 km/h (3 Bft)
19.03.2013 05:00 -1,9 C 91 % 996,8 hPa 0,0 l/m 10,1 km/h (2 Bft) N -3,2 C -5,6 C 13,8 km/h (3 Bft)
19.03.2013 06:00 -1,9 C 91 % 997,2 hPa 0,0 l/m 6,9 km/h (2 Bft) N-NW -3,2 C -2,7 C 10,5 km/h (2 Bft)
19.03.2013 07:00 -1,9 C 90 % 997,7 hPa 0,0 l/m 6,7 km/h (2 Bft) N-NW -3,3 C -2,4 C 10,4 km/h (2 Bft)
19.03.2013 08:00 -1,8 C 90 % 997,9 hPa 0,0 l/m 6,9 km/h (2 Bft) N-NW -3,2 C -2,4 C 10,4 km/h (2 Bft)
19.03.2013 09:00 -1,5 C 89 % 998,0 hPa 0,0 l/m 7,3 km/h (2 Bft) NW -3,0 C -2,5 C 12,0 km/h (2 Bft)
19.03.2013 10:00 -1,0 C 87 % 998,4 hPa 0,0 l/m 8,6 km/h (2 Bft) NW -3,0 C -3,2 C 13,7 km/h (3 Bft)
19.03.2013 11:00 -0,4 C 84 % 998,7 hPa 0,0 l/m 9,0 km/h (2 Bft) NW -2,8 C -3,1 C 14,8 km/h (3 Bft)
19.03.2013 12:00 0,2 C 81 % 999,0 hPa 0,0 l/m 5,7 km/h (2 Bft) W-NW -2,8 C -0,3 C 7,9 km/h (2 Bft)
19.03.2013 13:00 1,0 C 77 % 999,3 hPa 0,0 l/m 9,8 km/h (2 Bft) NW -2,5 C -2,2 C 15,6 km/h (3 Bft)
19.03.2013 14:00 1,4 C 77 % 999,4 hPa 0,0 l/m 9,9 km/h (2 Bft) NW -2,3 C -1,8 C 16,6 km/h (3 Bft)
19.03.2013 15:00 1,1 C 84 % 999,8 hPa 0,0 l/m 8,4 km/h (2 Bft) NW -1,3 C -0,9 C 14,4 km/h (3 Bft)
19.03.2013 16:00 1,0 C 85 % 1000,0 hPa 0,0 l/m 6,4 km/h (2 Bft) NW -1,2 C 0,5 C 11,7 km/h (2 Bft)
19.03.2013 17:00 0,7 C 86 % 1000,5 hPa 0,0 l/m 6,8 km/h (2 Bft) NW -1,3 C 0,1 C 12,0 km/h (2 Bft)
19.03.2013 18:00 0,2 C 88 % 1001,1 hPa 0,0 l/m 7,3 km/h (2 Bft) NW -1,5 C -1,2 C 12,1 km/h (2 Bft)
19.03.2013 19:00 -0,2 C 89 % 1001,8 hPa 0,0 l/m 8,8 km/h (2 Bft) N-NW -1,8 C -2,6 C 14,8 km/h (3 Bft)
19.03.2013 20:00 -0,4 C 89 % 1002,2 hPa 0,0 l/m 9,3 km/h (2 Bft) N-NW -2,0 C -3,2 C 14,6 km/h (3 Bft)
19.03.2013 21:00 -0,7 C 88 % 1002,6 hPa 0,0 l/m 12,5 km/h (2 Bft) N -2,5 C -6,1 C 18,5 km/h (3 Bft)
19.03.2013 22:00 -1,0 C 87 % 1003,1 hPa 0,0 l/m 11,5 km/h (2 Bft) N -2,9 C -5,7 C 17,3 km/h (3 Bft)
19.03.2013 23:00 -1,2 C 87 % 1003,7 hPa 0,0 l/m 10,8 km/h (2 Bft) N -3,1 C -5,4 C 15,7 km/h (3 Bft)
20.03.2013 00:00 -1,3 C 87 % 1004,1 hPa 0,0 l/m 9,9 km/h (2 Bft) N -3,2 C -4,7 C 14,8 km/h (3 Bft)
20.03.2013 01:00 -1,4 C 86 % 1004,4 hPa 0,0 l/m 7,7 km/h (2 Bft) N-NO -3,4 C -3,0 C 11,8 km/h (2 Bft)
20.03.2013 02:00 -1,4 C 86 % 1004,7 hPa 0,0 l/m 7,7 km/h (2 Bft) N-NO -3,4 C -3,1 C 11,2 km/h (2 Bft)
20.03.2013 03:00 -1,5 C 86 % 1004,8 hPa 0,0 l/m 8,0 km/h (2 Bft) N-NO -3,5 C -3,2 C 11,3 km/h (2 Bft)
20.03.2013 04:00 -1,7 C 87 % 1005,0 hPa 0,0 l/m 7,6 km/h (2 Bft) N-NO -3,7 C -3,1 C 10,9 km/h (2 Bft)
20.03.2013 05:00 -1,8 C 87 % 1005,4 hPa 0,0 l/m 7,1 km/h (2 Bft) N-NO -3,7 C -2,7 C 10,9 km/h (2 Bft)
20.03.2013 06:00 -2,0 C 88 % 1005,7 hPa 0,0 l/m 7,0 km/h (2 Bft) N-NO -3,7 C -2,9 C 10,9 km/h (2 Bft)
20.03.2013 07:00 -2,0 C 87 % 1006,0 hPa 0,0 l/m 7,3 km/h (2 Bft) N-NO -3,9 C -3,4 C 11,6 km/h (2 Bft)
20.03.2013 08:00 -1,8 C 86 % 1006,2 hPa 0,0 l/m 6,2 km/h (2 Bft) NO -3,8 C -2,3 C 10,2 km/h (2 Bft)
20.03.2013 09:00 -1,5 C 85 % 1006,4 hPa 0,0 l/m 5,9 km/h (2 Bft) NO -3,8 C -1,9 C 10,8 km/h (2 Bft)
20.03.2013 10:00 -1,2 C 84 % 1006,5 hPa 0,0 l/m 5,1 km/h (1 Bft) NO -3,6 C -1,2 C 9,0 km/h (2 Bft)
20.03.2013 11:00 -0,7 C 82 % 1006,7 hPa 0,0 l/m 6,6 km/h (2 Bft) O -3,3 C -1,2 C 12,0 km/h (2 Bft)
20.03.2013 12:00 0,2 C 80 % 1006,6 hPa 0,0 l/m 7,9 km/h (2 Bft) NO -2,9 C -1,3 C 12,6 km/h (3 Bft)
20.03.2013 13:00 0,5 C 78 % 1006,7 hPa 0,0 l/m 7,2 km/h (2 Bft) O-NO -2,9 C -0,7 C 12,6 km/h (3 Bft)
20.03.2013 14:00 0,7 C 78 % 1006,6 hPa 0,0 l/m 10,6 km/h (2 Bft) NO -2,7 C -3,1 C 17,2 km/h (3 Bft)
20.03.2013 15:00 0,8 C 79 % 1006,5 hPa 0,0 l/m 10,3 km/h (2 Bft) O-NO -2,6 C -2,8 C 17,0 km/h (3 Bft)
20.03.2013 16:00 0,4 C 80 % 1006,7 hPa 0,0 l/m 10,4 km/h (2 Bft) O-NO -2,6 C -3,2 C 17,3 km/h (3 Bft)
20.03.2013 17:00 -0,1 C 81 % 1007,2 hPa 0,0 l/m 9,7 km/h (2 Bft) O-NO -2,9 C -3,2 C 17,8 km/h (3 Bft)
20.03.2013 18:00 -0,3 C 82 % 1008,0 hPa 0,0 l/m 6,9 km/h (2 Bft) O -3,0 C -1,3 C 12,9 km/h (3 Bft)
20.03.2013 19:00 -1,0 C 89 % 1008,9 hPa 0,0 l/m 2,6 km/h (1 Bft) O -2,6 C -1,0 C 4,9 km/h (1 Bft)
20.03.2013 20:00 -1,4 C 93 % 1009,6 hPa 0,0 l/m 2,5 km/h (1 Bft) NO -2,3 C -1,4 C 4,3 km/h (1 Bft)
20.03.2013 21:00 -1,5 C 95 % 1010,0 hPa 0,0 l/m 2,5 km/h (1 Bft) NO -2,3 C -1,5 C 3,7 km/h (1 Bft)
20.03.2013 22:00 -1,6 C 95 % 1010,5 hPa 0,0 l/m 1,7 km/h (1 Bft) NO -2,3 C -1,6 C 2,4 km/h (1 Bft)
20.03.2013 23:00 -1,6 C 95 % 1011,3 hPa 0,0 l/m 4,9 km/h (1 Bft) N-NO -2,3 C -2,7 C 7,7 km/h (2 Bft)
21.03.2013 00:00 -2,0 C 95 % 1011,9 hPa 0,0 l/m 6,9 km/h (2 Bft) NO -2,7 C -3,5 C 10,2 km/h (2 Bft)
21.03.2013 01:00 -2,7 C 95 % 1012,7 hPa 0,0 l/m 1,1 km/h (0 Bft) N-NO -3,5 C -2,7 C 1,6 km/h (1 Bft)
21.03.2013 02:00 -3,2 C 95 % 1013,2 hPa 0,0 l/m 0,0 km/h (0 Bft) N -3,9 C -3,2 C 0,0 km/h (0 Bft)
21.03.2013 03:00 -2,6 C 95 % 1013,6 hPa 0,0 l/m 0,1 km/h (0 Bft) N-NW -3,2 C -2,6 C 0,3 km/h (0 Bft)
21.03.2013 04:00 -2,0 C 95 % 1014,1 hPa 0,0 l/m 2,3 km/h (1 Bft) N-NW -2,7 C -2,0 C 3,7 km/h (1 Bft)
21.03.2013 05:00 -1,9 C 94 % 1014,6 hPa 0,0 l/m 0,0 km/h (0 Bft) N -2,7 C -1,9 C 0,1 km/h (0 Bft)
21.03.2013 06:00 -1,9 C 94 % 1015,1 hPa 0,0 l/m 0,0 km/h (0 Bft) N -2,8 C -1,9 C 0,0 km/h (0 Bft)
21.03.2013 07:00 -1,5 C 94 % 1015,9 hPa 0,0 l/m 0,0 km/h (0 Bft) N -2,4 C -1,5 C 0,0 km/h (0 Bft)
21.03.2013 08:00 -0,7 C 93 % 1016,6 hPa 0,0 l/m 1,6 km/h (1 Bft) N-NW -1,7 C -0,7 C 2,9 km/h (1 Bft)
21.03.2013 09:00 -0,0 C 87 % 1017,1 hPa 0,0 l/m 6,3 km/h (2 Bft) N-NW -2,0 C -0,5 C 9,9 km/h (2 Bft)
21.03.2013 10:00 0,4 C 83 % 1017,3 hPa 0,2 l/m 7,9 km/h (2 Bft) N-NW -2,2 C -1,1 C 12,2 km/h (2 Bft)
21.03.2013 11:00 1,0 C 78 % 1017,7 hPa 1,0 l/m 7,8 km/h (2 Bft) N-NO -2,3 C -0,4 C 11,6 km/h (2 Bft)
21.03.2013 12:00 1,4 C 75 % 1018,0 hPa 1,2 l/m 7,5 km/h (2 Bft) N-NO -2,6 C -0,2 C 11,8 km/h (2 Bft)
21.03.2013 13:00 1,6 C 74 % 1018,4 hPa 0,4 l/m 5,4 km/h (2 Bft) N-NW -2,6 C 0,9 C 9,8 km/h (2 Bft)
21.03.2013 14:00 1,2 C 77 % 1018,5 hPa 0,2 l/m 4,8 km/h (1 Bft) NW -2,3 C 0,7 C 8,2 km/h (2 Bft)
21.03.2013 15:00 1,4 C 77 % 1018,7 hPa 0,2 l/m 5,6 km/h (2 Bft) N-NO -2,2 C 0,6 C 9,7 km/h (2 Bft)
21.03.2013 16:00 1,3 C 77 % 1019,0 hPa 0,0 l/m 8,3 km/h (2 Bft) N-NO -2,3 C -0,4 C 12,2 km/h (2 Bft)
21.03.2013 17:00 0,8 C 81 % 1019,5 hPa 0,2 l/m 10,6 km/h (2 Bft) N-NO -2,0 C -2,9 C 14,2 km/h (3 Bft)
21.03.2013 18:00 -0,0 C 88 % 1020,1 hPa 0,0 l/m 9,6 km/h (2 Bft) NO -1,8 C -3,1 C 13,8 km/h (3 Bft)
21.03.2013 19:00 -0,9 C 90 % 1020,7 hPa 0,0 l/m 7,9 km/h (2 Bft) N-NO -2,3 C -2,7 C 11,1 km/h (2 Bft)
21.03.2013 20:00 -1,5 C 91 % 1020,9 hPa 0,0 l/m 4,6 km/h (1 Bft) NO -2,8 C -1,5 C 6,1 km/h (2 Bft)
21.03.2013 21:00 -1,5 C 91 % 1021,2 hPa 0,0 l/m 6,4 km/h (2 Bft) NO -2,8 C -1,7 C 8,8 km/h (2 Bft)
21.03.2013 22:00 -1,4 C 89 % 1021,5 hPa 0,0 l/m 8,0 km/h (2 Bft) NO -2,9 C -2,9 C 11,4 km/h (2 Bft)
21.03.2013 23:00 -1,9 C 89 % 1021,7 hPa 0,0 l/m 7,5 km/h (2 Bft) NO -3,4 C -3,0 C 10,3 km/h (2 Bft)
22.03.2013 00:00 -1,9 C 90 % 1021,9 hPa 0,0 l/m 6,1 km/h (2 Bft) NO -3,4 C -2,4 C 8,6 km/h (2 Bft)
22.03.2013 01:00 -2,5 C 90 % 1022,1 hPa 0,0 l/m 5,3 km/h (1 Bft) NO -3,9 C -2,8 C 7,1 km/h (2 Bft)
22.03.2013 02:00 -2,7 C 91 % 1022,1 hPa 0,0 l/m 7,4 km/h (2 Bft) NO -4,0 C -3,8 C 10,6 km/h (2 Bft)
22.03.2013 03:00 -3,3 C 92 % 1021,9 hPa 0,0 l/m 3,9 km/h (1 Bft) NO -4,5 C -3,3 C 5,8 km/h (2 Bft)
22.03.2013 04:00 -3,3 C 92 % 1022,1 hPa 0,0 l/m 5,1 km/h (1 Bft) NO -4,4 C -3,4 C 7,5 km/h (2 Bft)
22.03.2013 05:00 -2,8 C 92 % 1022,3 hPa 0,0 l/m 7,4 km/h (2 Bft) NO -3,9 C -3,9 C 10,8 km/h (2 Bft)
22.03.2013 06:00 -2,7 C 92 % 1022,7 hPa 0,0 l/m 7,1 km/h (2 Bft) O-NO -3,8 C -3,6 C 11,4 km/h (2 Bft)
22.03.2013 07:00 -2,6 C 92 % 1022,9 hPa 0,0 l/m 6,9 km/h (2 Bft) O-NO -3,8 C -3,3 C 12,0 km/h (2 Bft)
22.03.2013 08:00 -2,7 C 90 % 1023,2 hPa 0,0 l/m 11,8 km/h (2 Bft) NO -4,1 C -7,8 C 17,0 km/h (3 Bft)
22.03.2013 09:00 -2,7 C 87 % 1023,5 hPa 0,0 l/m 10,6 km/h (2 Bft) O-NO -4,6 C -6,9 C 17,4 km/h (3 Bft)
22.03.2013 10:00 -1,9 C 84 % 1023,5 hPa 0,0 l/m 9,9 km/h (2 Bft) O -4,3 C -5,5 C 16,9 km/h (3 Bft)
22.03.2013 11:00 -1,3 C 81 % 1023,3 hPa 0,0 l/m 10,7 km/h (2 Bft) O-NO -4,1 C -5,4 C 18,6 km/h (3 Bft)
22.03.2013 12:00 -0,9 C 78 % 1023,2 hPa 0,0 l/m 10,2 km/h (2 Bft) O -4,2 C -4,6 C 18,5 km/h (3 Bft)
22.03.2013 13:00 -0,6 C 75 % 1023,1 hPa 0,0 l/m 8,0 km/h (2 Bft) O-NO -4,4 C -2,5 C 15,0 km/h (3 Bft)
22.03.2013 14:00 -0,4 C 77 % 1023,1 hPa 0,0 l/m 8,3 km/h (2 Bft) O-NO -4,0 C -2,4 C 14,6 km/h (3 Bft)
22.03.2013 15:00 -0,1 C 79 % 1022,2 hPa 0,0 l/m 13,0 km/h (3 Bft) NO -3,4 C -5,8 C 21,3 km/h (4 Bft)
22.03.2013 16:00 -0,5 C 81 % 1022,3 hPa 0,0 l/m 13,2 km/h (3 Bft) O-NO -3,3 C -6,2 C 22,7 km/h (4 Bft)
22.03.2013 17:00 -1,1 C 86 % 1022,8 hPa 0,0 l/m 10,9 km/h (2 Bft) O-NO -3,2 C -5,4 C 19,4 km/h (3 Bft)
22.03.2013 18:00 -1,5 C 84 % 1023,1 hPa 0,0 l/m 12,0 km/h (2 Bft) O-NO -3,9 C -6,5 C 21,7 km/h (4 Bft)
22.03.2013 19:00 -2,1 C 80 % 1023,8 hPa 0,0 l/m 15,6 km/h (3 Bft) O-NO -5,1 C -9,9 C 27,8 km/h (5 Bft)
22.03.2013 20:00 -2,7 C 78 % 1023,9 hPa 0,0 l/m 13,4 km/h (3 Bft) O-NO -6,0 C -9,1 C 22,9 km/h (4 Bft)
22.03.2013 21:00 -3,1 C 79 % 1024,1 hPa 0,0 l/m 12,1 km/h (2 Bft) O-NO -6,3 C -8,6 C 20,9 km/h (4 Bft)
22.03.2013 22:00 -3,1 C 79 % 1024,3 hPa 0,0 l/m 12,3 km/h (2 Bft) O-NO -6,2 C -8,7 C 22,5 km/h (4 Bft)
22.03.2013 23:00 -3,2 C 78 % 1024,2 hPa 0,0 l/m 13,1 km/h (3 Bft) O-NO -6,5 C -9,5 C 23,2 km/h (4 Bft)
23.03.2013 00:00 -3,4 C 77 % 1024,4 hPa 0,0 l/m 12,8 km/h (3 Bft) O-NO -6,8 C -9,5 C 22,9 km/h (4 Bft)
23.03.2013 01:00 -3,7 C 77 % 1024,4 hPa 0,0 l/m 14,5 km/h (3 Bft) O -7,2 C -11,1 C 25,1 km/h (4 Bft)
23.03.2013 02:00 -4,3 C 77 % 1024,6 hPa 0,0 l/m 15,1 km/h (3 Bft) O-NO -7,8 C -12,2 C 27,6 km/h (5 Bft)
23.03.2013 03:00 -5,0 C 79 % 1024,6 hPa 0,0 l/m 13,6 km/h (3 Bft) O -8,0 C -11,9 C 24,7 km/h (4 Bft)
23.03.2013 04:00 -5,6 C 80 % 1024,9 hPa 0,0 l/m 13,0 km/h (3 Bft) O -8,5 C -12,2 C 22,5 km/h (4 Bft)
23.03.2013 05:00 -7,0 C 79 % 1025,6 hPa 0,0 l/m 11,9 km/h (2 Bft) O -10,0 C -12,9 C 21,8 km/h (4 Bft)
23.03.2013 06:00 -7,5 C 78 % 1025,8 hPa 0,0 l/m 12,3 km/h (2 Bft) O -10,7 C -13,9 C 23,4 km/h (4 Bft)
23.03.2013 07:00 -7,2 C 75 % 1026,2 hPa 0,0 l/m 14,0 km/h (3 Bft) O-NO -10,9 C -14,9 C 26,0 km/h (4 Bft)
23.03.2013 08:00 -6,4 C 70 % 1026,5 hPa 0,0 l/m 15,3 km/h (3 Bft) O-NO -11,0 C -14,9 C 28,3 km/h (5 Bft)
23.03.2013 09:00 -5,6 C 64 % 1026,6 hPa 0,0 l/m 18,9 km/h (3 Bft) O-NO -11,3 C -16,2 C 33,4 km/h (5 Bft)
23.03.2013 10:00 -5,2 C 61 % 1026,6 hPa 0,0 l/m 16,5 km/h (3 Bft) O -11,4 C -14,3 C 29,8 km/h (5 Bft)
23.03.2013 11:00 -4,9 C 61 % 1026,6 hPa 0,0 l/m 17,6 km/h (3 Bft) O-NO -11,1 C -14,4 C 28,4 km/h (5 Bft)
23.03.2013 12:00 -4,3 C 58 % 1026,5 hPa 0,0 l/m 16,5 km/h (3 Bft) O -11,3 C -13,1 C 29,0 km/h (5 Bft)
23.03.2013 13:00 -4,0 C 55 % 1026,2 hPa 0,0 l/m 17,1 km/h (3 Bft) O -11,6 C -13,1 C 28,8 km/h (5 Bft)
23.03.2013 14:00 -3,8 C 52 % 1025,7 hPa 0,0 l/m 18,5 km/h (3 Bft) O-NO -12,2 C -13,7 C 31,3 km/h (5 Bft)
23.03.2013 15:00 -3,4 C 51 % 1025,6 hPa 0,0 l/m 17,1 km/h (3 Bft) O -12,1 C -12,4 C 29,4 km/h (5 Bft)
23.03.2013 16:00 -3,7 C 52 % 1025,5 hPa 0,0 l/m 18,2 km/h (3 Bft) O -12,0 C -13,4 C 32,7 km/h (5 Bft)
23.03.2013 17:00 -4,0 C 55 % 1025,4 hPa 0,0 l/m 17,1 km/h (3 Bft) O -11,7 C -13,1 C 29,7 km/h (5 Bft)
23.03.2013 18:00 -4,7 C 58 % 1025,8 hPa 0,0 l/m 14,6 km/h (3 Bft) O -11,7 C -12,3 C 25,7 km/h (4 Bft)
23.03.2013 19:00 -5,0 C 58 % 1026,3 hPa 0,0 l/m 13,6 km/h (3 Bft) O-NO -11,9 C -12,0 C 25,2 km/h (4 Bft)
23.03.2013 20:00 -5,3 C 57 % 1026,5 hPa 0,0 l/m 14,2 km/h (3 Bft) O-NO -12,4 C -12,9 C 26,9 km/h (4 Bft)
23.03.2013 21:00 -5,8 C 57 % 1026,7 hPa 0,0 l/m 12,6 km/h (3 Bft) O-NO -12,8 C -12,1 C 22,9 km/h (4 Bft)
23.03.2013 22:00 -6,3 C 57 % 1026,9 hPa 0,0 l/m 11,0 km/h (2 Bft) O-NO -13,4 C -11,4 C 22,3 km/h (4 Bft)
23.03.2013 23:00 -6,9 C 59 % 1027,1 hPa 0,0 l/m 9,1 km/h (2 Bft) O-NO -13,5 C -10,0 C 17,2 km/h (3 Bft)
24.03.2013 00:00 -7,4 C 60 % 1027,1 hPa 0,0 l/m 8,4 km/h (2 Bft) O-NO -13,8 C -9,9 C 17,0 km/h (3 Bft)
24.03.2013 01:00 -8,0 C 62 % 1026,9 hPa 0,0 l/m 9,0 km/h (2 Bft) O-NO -13,9 C -11,1 C 16,5 km/h (3 Bft)
24.03.2013 02:00 -8,4 C 63 % 1026,6 hPa 0,0 l/m 10,8 km/h (2 Bft) O-NO -14,1 C -13,4 C 18,9 km/h (3 Bft)
24.03.2013 03:00 -8,6 C 62 % 1026,3 hPa 0,0 l/m 9,8 km/h (2 Bft) O -14,5 C -12,7 C 19,0 km/h (3 Bft)
24.03.2013 04:00 -9,0 C 63 % 1026,2 hPa 0,0 l/m 9,8 km/h (2 Bft) O -14,8 C -13,2 C 17,8 km/h (3 Bft)
24.03.2013 05:00 -9,6 C 65 % 1026,3 hPa 0,0 l/m 7,9 km/h (2 Bft) O-NO -15,0 C -11,5 C 14,2 km/h (3 Bft)
24.03.2013 06:00 -9,7 C 66 % 1026,3 hPa 0,0 l/m 8,2 km/h (2 Bft) O-NO -14,8 C -11,9 C 15,7 km/h (3 Bft)
24.03.2013 07:00 -8,5 C 63 % 1026,6 hPa 0,0 l/m 10,2 km/h (2 Bft) O -14,3 C -13,0 C 18,5 km/h (3 Bft)
24.03.2013 08:00 -6,8 C 56 % 1026,7 hPa 0,0 l/m 14,6 km/h (3 Bft) O -14,0 C -14,9 C 25,9 km/h (4 Bft)
24.03.2013 09:00 -5,1 C 50 % 1026,5 hPa 0,0 l/m 18,4 km/h (3 Bft) O -13,8 C -15,3 C 29,7 km/h (5 Bft)
24.03.2013 10:00 -3,7 C 50 % 1026,3 hPa 0,0 l/m 14,1 km/h (3 Bft) O -12,5 C -10,8 C 23,9 km/h (4 Bft)
24.03.2013 11:00 -3,1 C 52 % 1026,0 hPa 0,0 l/m 15,8 km/h (3 Bft) O -11,5 C -11,2 C 26,4 km/h (4 Bft)
24.03.2013 12:00 -2,3 C 53 % 1025,5 hPa 0,0 l/m 17,5 km/h (3 Bft) O-NO -10,7 C -11,3 C 29,7 km/h (5 Bft)
24.03.2013 13:00 -1,9 C 55 % 1024,8 hPa 0,0 l/m 17,6 km/h (3 Bft) O-NO -9,8 C -10,8 C 29,7 km/h (5 Bft)
24.03.2013 14:00 -1,3 C 54 % 1024,3 hPa 0,0 l/m 16,7 km/h (3 Bft) O -9,4 C -9,5 C 29,9 km/h (5 Bft)
24.03.2013 15:00 -0,8 C 53 % 1023,6 hPa 0,0 l/m 18,6 km/h (3 Bft) O-NO -9,2 C -9,9 C 31,7 km/h (5 Bft)
24.03.2013 16:00 -0,5 C 55 % 1023,2 hPa 0,0 l/m 17,6 km/h (3 Bft) O -8,4 C -9,0 C 30,3 km/h (5 Bft)
24.03.2013 17:00 -0,7 C 57 % 1023,0 hPa 0,0 l/m 17,1 km/h (3 Bft) O-NO -8,1 C -9,0 C 30,2 km/h (5 Bft)
24.03.2013 18:00 -1,5 C 63 % 1023,3 hPa 0,0 l/m 13,4 km/h (3 Bft) O-NO -7,7 C -7,7 C 24,3 km/h (4 Bft)
24.03.2013 19:00 -2,1 C 66 % 1023,6 hPa 0,0 l/m 11,5 km/h (2 Bft) O-NO -7,6 C -7,0 C 20,9 km/h (4 Bft)
24.03.2013 20:00 -2,6 C 69 % 1023,8 hPa 0,0 l/m 12,5 km/h (2 Bft) O-NO -7,4 C -8,3 C 23,0 km/h (4 Bft)
24.03.2013 21:00 -2,9 C 70 % 1023,9 hPa 0,0 l/m 11,6 km/h (2 Bft) NO -7,6 C -8,0 C 21,3 km/h (4 Bft)
24.03.2013 22:00 -3,2 C 70 % 1023,8 hPa 0,0 l/m 11,4 km/h (2 Bft) O-NO -7,9 C -8,2 C 20,8 km/h (4 Bft)
24.03.2013 23:00 -3,8 C 72 % 1023,8 hPa 0,0 l/m 10,4 km/h (2 Bft) O-NO -8,1 C -8,0 C 19,0 km/h (3 Bft)
Min-Datum _ 24.03.13 24.03.13 19.03.13 - 20.03.13 - 24.03.13 23.03.13 18.03.13
_ Min-Zeit 05:40 09:45 02:45 - 22:45 - 05:40 09:25 11:40
Minimum _ -9,8 C 48 % 996,3 hPa - 0,0 km/h (0 Bft) - -15,1 C -18,3 C 0,0 km/h (0 Bft)
Max-Datum _ 21.03.13 21.03.13 23.03.13 21.03.13 23.03.13 - 18.03.13 21.03.13 23.03.13
_ Max-Zeit 13:45 02:25 23:40 12:00 09:25 - 13:05 13:40 08:50
Maximum _ 2,0 C 96 % 1027,2 hPa 1,2 l/m 22,2 km/h
O-NO (4 Bft)
- -0,7 C 1,9 C 38,6 km/h
O (6 Bft)
Durchschnitt _ -2,1 C 80 % 1013,7 hPa #4,2 l/m 9,4 km/h (2 Bft) O-NO -5,2 C -5,4 C 15,5 km/h (3 Bft)